sensor_id;sensor_type;location;lat;lon;timestamp;P1;durP1;ratioP1;P2;durP2;ratioP2
50932;SDS011;36921;49.006;9.292;2023-02-08T00:00:32;19.27;;;6.50;;
50932;SDS011;36921;49.006;9.292;2023-02-08T00:02:58;16.67;;;6.80;;
50932;SDS011;36921;49.006;9.292;2023-02-08T00:05:23;13.60;;;6.75;;
50932;SDS011;36921;49.006;9.292;2023-02-08T00:07:48;14.45;;;6.65;;
50932;SDS011;36921;49.006;9.292;2023-02-08T00:10:13;13.23;;;7.05;;
50932;SDS011;36921;49.006;9.292;2023-02-08T00:12:39;17.58;;;7.45;;
50932;SDS011;36921;49.006;9.292;2023-02-08T00:15:04;12.65;;;6.20;;
50932;SDS011;36921;49.006;9.292;2023-02-08T00:17:30;13.48;;;6.28;;
50932;SDS011;36921;49.006;9.292;2023-02-08T00:19:55;16.25;;;6.63;;
50932;SDS011;36921;49.006;9.292;2023-02-08T00:22:20;17.95;;;6.78;;
50932;SDS011;36921;49.006;9.292;2023-02-08T00:24:46;15.10;;;6.38;;
50932;SDS011;36921;49.006;9.292;2023-02-08T00:27:11;16.50;;;6.43;;
50932;SDS011;36921;49.006;9.292;2023-02-08T00:29:36;13.20;;;5.93;;
50932;SDS011;36921;49.006;9.292;2023-02-08T00:32:02;13.73;;;5.90;;
50932;SDS011;36921;49.006;9.292;2023-02-08T00:34:27;12.65;;;6.20;;
50932;SDS011;36921;49.006;9.292;2023-02-08T00:36:53;19.58;;;5.97;;
50932;SDS011;36921;49.006;9.292;2023-02-08T00:39:18;13.60;;;5.70;;
50932;SDS011;36921;49.006;9.292;2023-02-08T00:41:45;11.82;;;6.57;;
50932;SDS011;36921;49.006;9.292;2023-02-08T00:44:10;13.48;;;6.20;;
50932;SDS011;36921;49.006;9.292;2023-02-08T00:46:36;14.15;;;6.13;;
50932;SDS011;36921;49.006;9.292;2023-02-08T00:49:01;17.67;;;6.78;;
50932;SDS011;36921;49.006;9.292;2023-02-08T00:51:27;12.10;;;6.28;;
50932;SDS011;36921;49.006;9.292;2023-02-08T00:53:53;11.32;;;5.75;;
50932;SDS011;36921;49.006;9.292;2023-02-08T00:56:18;19.67;;;6.63;;
50932;SDS011;36921;49.006;9.292;2023-02-08T00:58:43;13.48;;;6.15;;
50932;SDS011;36921;49.006;9.292;2023-02-08T01:01:09;16.30;;;6.18;;
50932;SDS011;36921;49.006;9.292;2023-02-08T01:03:35;12.98;;;5.75;;
50932;SDS011;36921;49.006;9.292;2023-02-08T01:06:02;16.67;;;6.63;;
50932;SDS011;36921;49.006;9.292;2023-02-08T01:08:29;15.13;;;6.72;;
50932;SDS011;36921;49.006;9.292;2023-02-08T01:11:05;14.55;;;5.63;;
50932;SDS011;36921;49.006;9.292;2023-02-08T01:13:32;13.63;;;6.15;;
50932;SDS011;36921;49.006;9.292;2023-02-08T01:16:04;12.30;;;6.03;;
50932;SDS011;36921;49.006;9.292;2023-02-08T01:18:49;17.85;;;5.90;;
50932;SDS011;36921;49.006;9.292;2023-02-08T01:21:17;13.82;;;6.00;;
50932;SDS011;36921;49.006;9.292;2023-02-08T01:23:44;14.57;;;6.03;;
50932;SDS011;36921;49.006;9.292;2023-02-08T01:26:11;11.93;;;5.78;;
50932;SDS011;36921;49.006;9.292;2023-02-08T01:28:37;15.68;;;6.45;;
50932;SDS011;36921;49.006;9.292;2023-02-08T01:31:04;15.80;;;5.95;;
50932;SDS011;36921;49.006;9.292;2023-02-08T01:33:31;16.77;;;5.77;;
50932;SDS011;36921;49.006;9.292;2023-02-08T01:35:57;15.85;;;5.95;;
50932;SDS011;36921;49.006;9.292;2023-02-08T01:38:22;16.50;;;6.32;;
50932;SDS011;36921;49.006;9.292;2023-02-08T01:40:47;11.43;;;5.47;;
50932;SDS011;36921;49.006;9.292;2023-02-08T01:43:16;14.27;;;5.70;;
50932;SDS011;36921;49.006;9.292;2023-02-08T01:45:45;15.15;;;6.55;;
50932;SDS011;36921;49.006;9.292;2023-02-08T01:48:12;16.42;;;6.50;;
50932;SDS011;36921;49.006;9.292;2023-02-08T01:50:52;12.45;;;5.78;;
50932;SDS011;36921;49.006;9.292;2023-02-08T01:53:29;15.90;;;5.93;;
50932;SDS011;36921;49.006;9.292;2023-02-08T01:55:58;17.75;;;7.07;;
50932;SDS011;36921;49.006;9.292;2023-02-08T01:58:27;19.23;;;7.95;;
50932;SDS011;36921;49.006;9.292;2023-02-08T02:00:55;16.35;;;8.02;;
50932;SDS011;36921;49.006;9.292;2023-02-08T02:03:21;17.75;;;7.75;;
50932;SDS011;36921;49.006;9.292;2023-02-08T02:05:49;20.42;;;8.38;;
50932;SDS011;36921;49.006;9.292;2023-02-08T02:08:19;16.10;;;7.00;;
50932;SDS011;36921;49.006;9.292;2023-02-08T02:10:44;15.27;;;7.47;;
50932;SDS011;36921;49.006;9.292;2023-02-08T02:13:22;20.65;;;7.32;;
50932;SDS011;36921;49.006;9.292;2023-02-08T02:15:50;14.18;;;6.45;;
50932;SDS011;36921;49.006;9.292;2023-02-08T02:18:23;20.10;;;7.10;;
50932;SDS011;36921;49.006;9.292;2023-02-08T02:23:59;15.25;;;6.85;;
50932;SDS011;36921;49.006;9.292;2023-02-08T02:26:52;18.50;;;6.80;;
50932;SDS011;36921;49.006;9.292;2023-02-08T02:32:37;16.55;;;6.90;;
50932;SDS011;36921;49.006;9.292;2023-02-08T02:35:57;19.70;;;7.88;;
50932;SDS011;36921;49.006;9.292;2023-02-08T02:44:01;16.13;;;6.82;;
50932;SDS011;36921;49.006;9.292;2023-02-08T02:46:34;21.02;;;7.10;;
50932;SDS011;36921;49.006;9.292;2023-02-08T02:49:15;17.10;;;7.00;;
50932;SDS011;36921;49.006;9.292;2023-02-08T02:51:56;21.45;;;8.50;;
50932;SDS011;36921;49.006;9.292;2023-02-08T02:54:38;19.25;;;7.43;;
50932;SDS011;36921;49.006;9.292;2023-02-08T02:57:10;15.82;;;6.90;;
50932;SDS011;36921;49.006;9.292;2023-02-08T02:59:39;18.20;;;8.25;;
50932;SDS011;36921;49.006;9.292;2023-02-08T03:02:05;19.65;;;7.78;;
50932;SDS011;36921;49.006;9.292;2023-02-08T03:13:00;16.95;;;7.18;;
50932;SDS011;36921;49.006;9.292;2023-02-08T03:18:46;18.52;;;8.20;;
50932;SDS011;36921;49.006;9.292;2023-02-08T03:21:52;16.88;;;7.60;;
50932;SDS011;36921;49.006;9.292;2023-02-08T03:27:13;18.52;;;8.35;;
50932;SDS011;36921;49.006;9.292;2023-02-08T03:29:58;16.95;;;7.47;;
50932;SDS011;36921;49.006;9.292;2023-02-08T03:32:46;18.83;;;8.05;;
50932;SDS011;36921;49.006;9.292;2023-02-08T03:35:30;19.23;;;7.70;;
50932;SDS011;36921;49.006;9.292;2023-02-08T03:40:51;15.00;;;6.97;;
50932;SDS011;36921;49.006;9.292;2023-02-08T03:43:24;18.98;;;7.80;;
50932;SDS011;36921;49.006;9.292;2023-02-08T03:45:58;19.33;;;8.20;;
50932;SDS011;36921;49.006;9.292;2023-02-08T03:48:30;17.45;;;7.80;;
50932;SDS011;36921;49.006;9.292;2023-02-08T03:50:59;13.05;;;5.70;;
50932;SDS011;36921;49.006;9.292;2023-02-08T03:53:27;18.77;;;7.47;;
50932;SDS011;36921;49.006;9.292;2023-02-08T03:55:57;16.13;;;6.30;;
50932;SDS011;36921;49.006;9.292;2023-02-08T03:58:44;16.98;;;6.80;;
50932;SDS011;36921;49.006;9.292;2023-02-08T04:01:16;18.40;;;7.38;;
50932;SDS011;36921;49.006;9.292;2023-02-08T04:03:47;14.55;;;7.07;;
50932;SDS011;36921;49.006;9.292;2023-02-08T04:06:18;16.95;;;7.28;;
50932;SDS011;36921;49.006;9.292;2023-02-08T04:08:43;18.67;;;7.30;;
50932;SDS011;36921;49.006;9.292;2023-02-08T04:11:09;15.68;;;7.20;;
50932;SDS011;36921;49.006;9.292;2023-02-08T04:13:34;17.38;;;7.00;;
50932;SDS011;36921;49.006;9.292;2023-02-08T04:15:59;19.90;;;6.85;;
50932;SDS011;36921;49.006;9.292;2023-02-08T04:18:25;18.38;;;7.93;;
50932;SDS011;36921;49.006;9.292;2023-02-08T04:20:50;16.10;;;7.03;;
50932;SDS011;36921;49.006;9.292;2023-02-08T04:23:15;17.83;;;7.43;;
50932;SDS011;36921;49.006;9.292;2023-02-08T04:25:40;18.00;;;6.90;;
50932;SDS011;36921;49.006;9.292;2023-02-08T04:28:06;18.00;;;7.13;;
50932;SDS011;36921;49.006;9.292;2023-02-08T04:30:32;23.15;;;8.25;;
50932;SDS011;36921;49.006;9.292;2023-02-08T04:32:57;18.20;;;8.00;;
50932;SDS011;36921;49.006;9.292;2023-02-08T04:35:23;21.15;;;7.47;;
50932;SDS011;36921;49.006;9.292;2023-02-08T04:37:49;17.48;;;7.43;;
50932;SDS011;36921;49.006;9.292;2023-02-08T04:40:14;17.33;;;7.00;;
50932;SDS011;36921;49.006;9.292;2023-02-08T04:42:40;16.58;;;6.88;;
50932;SDS011;36921;49.006;9.292;2023-02-08T04:45:05;15.70;;;6.80;;
50932;SDS011;36921;49.006;9.292;2023-02-08T04:47:31;15.00;;;6.85;;
50932;SDS011;36921;49.006;9.292;2023-02-08T04:49:56;16.13;;;7.50;;
50932;SDS011;36921;49.006;9.292;2023-02-08T04:52:21;14.60;;;7.32;;
50932;SDS011;36921;49.006;9.292;2023-02-08T04:54:47;17.63;;;7.18;;
50932;SDS011;36921;49.006;9.292;2023-02-08T05:00:34;16.75;;;6.95;;
50932;SDS011;36921;49.006;9.292;2023-02-08T05:03:02;13.97;;;5.50;;
50932;SDS011;36921;49.006;9.292;2023-02-08T05:05:28;17.45;;;6.70;;
50932;SDS011;36921;49.006;9.292;2023-02-08T05:07:54;15.52;;;6.85;;
50932;SDS011;36921;49.006;9.292;2023-02-08T05:10:20;16.08;;;7.13;;
50932;SDS011;36921;49.006;9.292;2023-02-08T05:12:49;15.88;;;6.55;;
50932;SDS011;36921;49.006;9.292;2023-02-08T05:15:27;17.98;;;7.25;;
50932;SDS011;36921;49.006;9.292;2023-02-08T05:17:53;18.60;;;6.97;;
50932;SDS011;36921;49.006;9.292;2023-02-08T05:20:18;17.45;;;6.53;;
50932;SDS011;36921;49.006;9.292;2023-02-08T05:22:43;16.15;;;6.68;;
50932;SDS011;36921;49.006;9.292;2023-02-08T05:25:09;18.13;;;7.28;;
50932;SDS011;36921;49.006;9.292;2023-02-08T05:27:34;18.00;;;6.53;;
50932;SDS011;36921;49.006;9.292;2023-02-08T05:30:00;16.75;;;7.15;;
50932;SDS011;36921;49.006;9.292;2023-02-08T05:32:26;19.33;;;6.88;;
50932;SDS011;36921;49.006;9.292;2023-02-08T05:34:51;15.80;;;6.47;;
50932;SDS011;36921;49.006;9.292;2023-02-08T05:37:17;14.68;;;7.47;;
50932;SDS011;36921;49.006;9.292;2023-02-08T05:39:42;15.32;;;7.15;;
50932;SDS011;36921;49.006;9.292;2023-02-08T05:42:08;15.30;;;6.95;;
50932;SDS011;36921;49.006;9.292;2023-02-08T05:44:33;18.30;;;6.95;;
50932;SDS011;36921;49.006;9.292;2023-02-08T05:46:58;17.27;;;7.22;;
50932;SDS011;36921;49.006;9.292;2023-02-08T05:49:24;17.83;;;7.30;;
50932;SDS011;36921;49.006;9.292;2023-02-08T05:51:49;19.25;;;7.15;;
50932;SDS011;36921;49.006;9.292;2023-02-08T05:54:15;22.90;;;7.80;;
50932;SDS011;36921;49.006;9.292;2023-02-08T05:56:41;17.65;;;7.03;;
50932;SDS011;36921;49.006;9.292;2023-02-08T05:59:07;16.75;;;6.95;;
50932;SDS011;36921;49.006;9.292;2023-02-08T06:01:34;15.82;;;7.20;;
50932;SDS011;36921;49.006;9.292;2023-02-08T06:03:59;15.35;;;6.80;;
50932;SDS011;36921;49.006;9.292;2023-02-08T06:06:25;27.48;;;6.55;;
50932;SDS011;36921;49.006;9.292;2023-02-08T06:08:51;15.10;;;6.40;;
50932;SDS011;36921;49.006;9.292;2023-02-08T06:11:16;21.85;;;6.90;;
50932;SDS011;36921;49.006;9.292;2023-02-08T06:13:43;17.77;;;6.40;;
50932;SDS011;36921;49.006;9.292;2023-02-08T06:16:10;14.05;;;6.55;;
50932;SDS011;36921;49.006;9.292;2023-02-08T06:18:36;18.70;;;6.97;;
50932;SDS011;36921;49.006;9.292;2023-02-08T06:21:01;18.15;;;6.85;;
50932;SDS011;36921;49.006;9.292;2023-02-08T06:23:26;27.65;;;6.65;;
50932;SDS011;36921;49.006;9.292;2023-02-08T06:25:52;19.70;;;7.53;;
50932;SDS011;36921;49.006;9.292;2023-02-08T06:28:17;17.33;;;6.60;;
50932;SDS011;36921;49.006;9.292;2023-02-08T06:30:43;20.20;;;7.25;;
50932;SDS011;36921;49.006;9.292;2023-02-08T06:33:09;19.40;;;6.75;;
50932;SDS011;36921;49.006;9.292;2023-02-08T06:35:35;17.48;;;7.00;;
50932;SDS011;36921;49.006;9.292;2023-02-08T06:38:00;19.60;;;7.15;;
50932;SDS011;36921;49.006;9.292;2023-02-08T06:40:26;23.17;;;6.93;;
50932;SDS011;36921;49.006;9.292;2023-02-08T06:42:51;13.70;;;6.63;;
50932;SDS011;36921;49.006;9.292;2023-02-08T06:45:17;14.50;;;6.43;;
50932;SDS011;36921;49.006;9.292;2023-02-08T06:47:42;20.50;;;7.22;;
50932;SDS011;36921;49.006;9.292;2023-02-08T06:50:08;14.68;;;6.07;;
50932;SDS011;36921;49.006;9.292;2023-02-08T06:52:34;17.48;;;6.72;;
50932;SDS011;36921;49.006;9.292;2023-02-08T06:55:00;18.25;;;6.43;;
50932;SDS011;36921;49.006;9.292;2023-02-08T06:57:25;15.95;;;6.72;;
50932;SDS011;36921;49.006;9.292;2023-02-08T06:59:50;18.75;;;6.82;;
50932;SDS011;36921;49.006;9.292;2023-02-08T07:02:17;24.42;;;8.13;;
50932;SDS011;36921;49.006;9.292;2023-02-08T07:04:43;23.17;;;6.63;;
50932;SDS011;36921;49.006;9.292;2023-02-08T07:07:10;25.85;;;7.03;;
50932;SDS011;36921;49.006;9.292;2023-02-08T07:09:36;22.52;;;10.07;;
50932;SDS011;36921;49.006;9.292;2023-02-08T07:12:01;33.10;;;9.73;;
50932;SDS011;36921;49.006;9.292;2023-02-08T07:14:29;19.15;;;7.70;;
50932;SDS011;36921;49.006;9.292;2023-02-08T07:17:00;17.40;;;7.43;;
50932;SDS011;36921;49.006;9.292;2023-02-08T07:19:26;19.10;;;6.90;;
50932;SDS011;36921;49.006;9.292;2023-02-08T07:21:52;15.98;;;7.65;;
50932;SDS011;36921;49.006;9.292;2023-02-08T07:24:17;20.33;;;6.72;;
50932;SDS011;36921;49.006;9.292;2023-02-08T07:26:43;23.40;;;7.55;;
50932;SDS011;36921;49.006;9.292;2023-02-08T07:29:08;20.60;;;8.75;;
50932;SDS011;36921;49.006;9.292;2023-02-08T07:31:34;20.65;;;10.15;;
50932;SDS011;36921;49.006;9.292;2023-02-08T07:34:00;19.40;;;9.00;;
50932;SDS011;36921;49.006;9.292;2023-02-08T07:36:25;19.83;;;8.00;;
50932;SDS011;36921;49.006;9.292;2023-02-08T07:38:50;16.65;;;8.43;;
50932;SDS011;36921;49.006;9.292;2023-02-08T07:41:16;22.48;;;7.63;;
50932;SDS011;36921;49.006;9.292;2023-02-08T07:43:41;18.10;;;8.60;;
50932;SDS011;36921;49.006;9.292;2023-02-08T07:46:14;21.85;;;8.77;;
50932;SDS011;36921;49.006;9.292;2023-02-08T07:48:42;22.75;;;10.43;;
50932;SDS011;36921;49.006;9.292;2023-02-08T07:51:08;19.40;;;9.10;;
50932;SDS011;36921;49.006;9.292;2023-02-08T07:53:34;23.45;;;10.20;;
50932;SDS011;36921;49.006;9.292;2023-02-08T07:55:59;18.40;;;9.60;;
50932;SDS011;36921;49.006;9.292;2023-02-08T07:58:25;18.17;;;9.63;;
50932;SDS011;36921;49.006;9.292;2023-02-08T08:00:51;19.30;;;9.90;;
50932;SDS011;36921;49.006;9.292;2023-02-08T08:03:17;21.10;;;9.73;;
50932;SDS011;36921;49.006;9.292;2023-02-08T08:05:42;17.27;;;10.45;;
50932;SDS011;36921;49.006;9.292;2023-02-08T08:08:08;25.95;;;13.50;;
50932;SDS011;36921;49.006;9.292;2023-02-08T08:10:34;19.63;;;11.35;;
50932;SDS011;36921;49.006;9.292;2023-02-08T08:13:00;20.13;;;10.48;;
50932;SDS011;36921;49.006;9.292;2023-02-08T08:15:25;20.40;;;11.20;;
50932;SDS011;36921;49.006;9.292;2023-02-08T08:17:51;24.52;;;10.70;;
50932;SDS011;36921;49.006;9.292;2023-02-08T08:20:17;15.10;;;9.60;;
50932;SDS011;36921;49.006;9.292;2023-02-08T08:22:42;17.75;;;9.98;;
50932;SDS011;36921;49.006;9.292;2023-02-08T08:25:08;17.45;;;9.63;;
50932;SDS011;36921;49.006;9.292;2023-02-08T08:27:33;16.80;;;9.90;;
50932;SDS011;36921;49.006;9.292;2023-02-08T08:29:59;15.45;;;9.50;;
50932;SDS011;36921;49.006;9.292;2023-02-08T08:32:25;16.27;;;9.50;;
50932;SDS011;36921;49.006;9.292;2023-02-08T08:34:51;18.08;;;9.82;;
50932;SDS011;36921;49.006;9.292;2023-02-08T08:37:16;17.48;;;9.70;;
50932;SDS011;36921;49.006;9.292;2023-02-08T08:39:41;18.52;;;8.57;;
50932;SDS011;36921;49.006;9.292;2023-02-08T08:42:07;16.35;;;8.65;;
50932;SDS011;36921;49.006;9.292;2023-02-08T08:44:33;19.50;;;9.70;;
50932;SDS011;36921;49.006;9.292;2023-02-08T08:46:59;15.07;;;8.15;;
50932;SDS011;36921;49.006;9.292;2023-02-08T08:49:25;19.13;;;9.65;;
50932;SDS011;36921;49.006;9.292;2023-02-08T08:51:52;15.38;;;8.65;;
50932;SDS011;36921;49.006;9.292;2023-02-08T08:54:18;15.00;;;8.35;;
50932;SDS011;36921;49.006;9.292;2023-02-08T08:56:45;17.20;;;9.07;;
50932;SDS011;36921;49.006;9.292;2023-02-08T08:59:10;15.77;;;8.80;;
50932;SDS011;36921;49.006;9.292;2023-02-08T09:01:37;15.70;;;9.07;;
50932;SDS011;36921;49.006;9.292;2023-02-08T09:04:03;14.55;;;8.55;;
50932;SDS011;36921;49.006;9.292;2023-02-08T09:06:28;17.10;;;9.23;;
50932;SDS011;36921;49.006;9.292;2023-02-08T09:09:00;14.55;;;8.15;;
50932;SDS011;36921;49.006;9.292;2023-02-08T09:11:26;19.53;;;9.27;;
50932;SDS011;36921;49.006;9.292;2023-02-08T09:14:03;16.58;;;9.02;;
50932;SDS011;36921;49.006;9.292;2023-02-08T09:16:52;18.27;;;8.55;;
50932;SDS011;36921;49.006;9.292;2023-02-08T09:19:17;16.83;;;9.30;;
50932;SDS011;36921;49.006;9.292;2023-02-08T09:21:43;18.30;;;9.15;;
50932;SDS011;36921;49.006;9.292;2023-02-08T09:24:08;16.75;;;8.25;;
50932;SDS011;36921;49.006;9.292;2023-02-08T09:26:34;18.05;;;7.45;;
50932;SDS011;36921;49.006;9.292;2023-02-08T09:29:00;16.25;;;8.82;;
50932;SDS011;36921;49.006;9.292;2023-02-08T09:31:26;18.25;;;8.00;;
50932;SDS011;36921;49.006;9.292;2023-02-08T09:33:54;17.67;;;8.95;;
50932;SDS011;36921;49.006;9.292;2023-02-08T09:36:21;15.82;;;8.77;;
50932;SDS011;36921;49.006;9.292;2023-02-08T09:38:49;14.57;;;7.40;;
50932;SDS011;36921;49.006;9.292;2023-02-08T09:41:32;15.52;;;8.23;;
50932;SDS011;36921;49.006;9.292;2023-02-08T09:47:18;16.60;;;7.93;;
50932;SDS011;36921;49.006;9.292;2023-02-08T09:49:54;16.08;;;8.50;;
50932;SDS011;36921;49.006;9.292;2023-02-08T09:52:24;14.80;;;8.02;;
50932;SDS011;36921;49.006;9.292;2023-02-08T09:54:57;17.08;;;8.27;;
50932;SDS011;36921;49.006;9.292;2023-02-08T09:57:26;15.15;;;7.75;;
50932;SDS011;36921;49.006;9.292;2023-02-08T10:03:02;13.50;;;7.65;;
50932;SDS011;36921;49.006;9.292;2023-02-08T10:05:30;14.80;;;7.72;;
50932;SDS011;36921;49.006;9.292;2023-02-08T10:07:55;15.52;;;7.80;;
50932;SDS011;36921;49.006;9.292;2023-02-08T10:16:02;14.98;;;8.02;;
50932;SDS011;36921;49.006;9.292;2023-02-08T10:18:57;14.07;;;7.40;;
50932;SDS011;36921;49.006;9.292;2023-02-08T10:21:40;14.43;;;7.75;;
50932;SDS011;36921;49.006;9.292;2023-02-08T10:24:25;16.08;;;8.05;;
50932;SDS011;36921;49.006;9.292;2023-02-08T10:35:13;14.98;;;7.22;;
50932;SDS011;36921;49.006;9.292;2023-02-08T10:37:48;12.05;;;6.85;;
50932;SDS011;36921;49.006;9.292;2023-02-08T10:40:30;14.93;;;7.72;;
50932;SDS011;36921;49.006;9.292;2023-02-08T10:46:03;13.73;;;7.50;;
50932;SDS011;36921;49.006;9.292;2023-02-08T10:48:45;13.73;;;7.28;;
50932;SDS011;36921;49.006;9.292;2023-02-08T10:51:14;12.65;;;7.00;;
50932;SDS011;36921;49.006;9.292;2023-02-08T10:53:41;10.32;;;5.95;;
50932;SDS011;36921;49.006;9.292;2023-02-08T10:56:27;13.55;;;6.50;;
50932;SDS011;36921;49.006;9.292;2023-02-08T10:58:56;11.88;;;6.07;;
50932;SDS011;36921;49.006;9.292;2023-02-08T11:01:22;12.88;;;5.60;;
50932;SDS011;36921;49.006;9.292;2023-02-08T11:03:59;10.48;;;5.75;;
50932;SDS011;36921;49.006;9.292;2023-02-08T11:06:29;13.70;;;5.80;;
50932;SDS011;36921;49.006;9.292;2023-02-08T11:08:54;11.68;;;5.68;;
50932;SDS011;36921;49.006;9.292;2023-02-08T11:11:20;9.88;;;5.38;;
50932;SDS011;36921;49.006;9.292;2023-02-08T11:13:47;7.82;;;4.55;;
50932;SDS011;36921;49.006;9.292;2023-02-08T11:16:22;9.02;;;4.90;;
50932;SDS011;36921;49.006;9.292;2023-02-08T11:18:53;8.52;;;4.65;;
50932;SDS011;36921;49.006;9.292;2023-02-08T11:26:40;8.27;;;4.30;;
50932;SDS011;36921;49.006;9.292;2023-02-08T11:29:13;6.88;;;4.15;;
50932;SDS011;36921;49.006;9.292;2023-02-08T11:32:03;6.30;;;3.63;;
50932;SDS011;36921;49.006;9.292;2023-02-08T11:34:49;9.20;;;4.22;;
50932;SDS011;36921;49.006;9.292;2023-02-08T11:37:19;8.02;;;4.40;;
50932;SDS011;36921;49.006;9.292;2023-02-08T11:39:50;8.02;;;4.07;;
50932;SDS011;36921;49.006;9.292;2023-02-08T11:42:20;9.00;;;4.18;;
50932;SDS011;36921;49.006;9.292;2023-02-08T11:44:48;7.28;;;3.72;;
50932;SDS011;36921;49.006;9.292;2023-02-08T11:47:15;6.88;;;3.80;;
50932;SDS011;36921;49.006;9.292;2023-02-08T11:49:54;8.05;;;4.32;;
50932;SDS011;36921;49.006;9.292;2023-02-08T11:52:22;7.55;;;3.72;;
50932;SDS011;36921;49.006;9.292;2023-02-08T11:54:50;7.45;;;4.20;;
50932;SDS011;36921;49.006;9.292;2023-02-08T11:57:17;7.93;;;4.25;;
50932;SDS011;36921;49.006;9.292;2023-02-08T11:59:45;6.97;;;3.85;;
50932;SDS011;36921;49.006;9.292;2023-02-08T12:02:28;6.22;;;3.72;;
50932;SDS011;36921;49.006;9.292;2023-02-08T12:05:02;6.07;;;3.50;;
50932;SDS011;36921;49.006;9.292;2023-02-08T12:07:36;7.28;;;3.60;;
50932;SDS011;36921;49.006;9.292;2023-02-08T12:10:44;6.35;;;3.40;;
50932;SDS011;36921;49.006;9.292;2023-02-08T12:16:09;7.32;;;3.65;;
50932;SDS011;36921;49.006;9.292;2023-02-08T12:21:27;5.95;;;3.50;;
50932;SDS011;36921;49.006;9.292;2023-02-08T12:24:01;6.00;;;3.50;;
50932;SDS011;36921;49.006;9.292;2023-02-08T12:32:14;4.70;;;2.90;;
50932;SDS011;36921;49.006;9.292;2023-02-08T12:35:10;6.53;;;3.40;;
50932;SDS011;36921;49.006;9.292;2023-02-08T12:54:39;8.60;;;2.83;;
50932;SDS011;36921;49.006;9.292;2023-02-08T12:57:13;6.03;;;2.97;;
50932;SDS011;36921;49.006;9.292;2023-02-08T13:02:31;7.88;;;3.53;;
50932;SDS011;36921;49.006;9.292;2023-02-08T13:05:10;6.15;;;3.00;;
50932;SDS011;36921;49.006;9.292;2023-02-08T13:07:41;5.70;;;3.28;;
50932;SDS011;36921;49.006;9.292;2023-02-08T13:10:19;6.68;;;3.20;;
50932;SDS011;36921;49.006;9.292;2023-02-08T13:12:51;8.10;;;3.47;;
50932;SDS011;36921;49.006;9.292;2023-02-08T13:15:23;6.07;;;3.35;;
50932;SDS011;36921;49.006;9.292;2023-02-08T13:18:16;8.75;;;3.50;;
50932;SDS011;36921;49.006;9.292;2023-02-08T13:23:22;4.53;;;2.83;;
50932;SDS011;36921;49.006;9.292;2023-02-08T13:25:52;4.15;;;2.80;;
50932;SDS011;36921;49.006;9.292;2023-02-08T13:28:20;5.05;;;2.83;;
50932;SDS011;36921;49.006;9.292;2023-02-08T13:30:55;7.82;;;3.20;;
50932;SDS011;36921;49.006;9.292;2023-02-08T13:33:28;7.32;;;4.05;;
50932;SDS011;36921;49.006;9.292;2023-02-08T13:35:58;6.68;;;3.33;;
50932;SDS011;36921;49.006;9.292;2023-02-08T13:38:33;5.30;;;3.15;;
50932;SDS011;36921;49.006;9.292;2023-02-08T13:41:22;7.75;;;3.88;;
50932;SDS011;36921;49.006;9.292;2023-02-08T13:46:25;6.18;;;3.35;;
50932;SDS011;36921;49.006;9.292;2023-02-08T13:48:56;7.03;;;3.28;;
50932;SDS011;36921;49.006;9.292;2023-02-08T14:04:46;7.32;;;3.35;;
50932;SDS011;36921;49.006;9.292;2023-02-08T14:07:36;6.95;;;3.35;;
50932;SDS011;36921;49.006;9.292;2023-02-08T14:10:08;5.88;;;3.45;;
50932;SDS011;36921;49.006;9.292;2023-02-08T14:12:56;9.40;;;3.63;;
50932;SDS011;36921;49.006;9.292;2023-02-08T14:15:27;6.85;;;3.45;;
50932;SDS011;36921;49.006;9.292;2023-02-08T14:17:57;7.15;;;4.03;;
50932;SDS011;36921;49.006;9.292;2023-02-08T14:20:29;6.90;;;3.83;;
50932;SDS011;36921;49.006;9.292;2023-02-08T14:23:01;7.38;;;4.07;;
50932;SDS011;36921;49.006;9.292;2023-02-08T14:25:36;7.68;;;4.07;;
50932;SDS011;36921;49.006;9.292;2023-02-08T14:28:20;8.50;;;4.57;;
50932;SDS011;36921;49.006;9.292;2023-02-08T14:30:49;10.20;;;5.13;;
50932;SDS011;36921;49.006;9.292;2023-02-08T14:33:17;9.68;;;4.95;;
50932;SDS011;36921;49.006;9.292;2023-02-08T14:35:55;11.68;;;5.55;;
50932;SDS011;36921;49.006;9.292;2023-02-08T14:43:34;9.60;;;5.72;;
50932;SDS011;36921;49.006;9.292;2023-02-08T14:51:27;9.80;;;4.97;;
50932;SDS011;36921;49.006;9.292;2023-02-08T14:53:57;14.68;;;5.50;;
50932;SDS011;36921;49.006;9.292;2023-02-08T14:56:35;18.00;;;5.28;;
50932;SDS011;36921;49.006;9.292;2023-02-08T14:59:18;9.63;;;4.80;;
50932;SDS011;36921;49.006;9.292;2023-02-08T15:01:51;8.88;;;4.53;;
50932;SDS011;36921;49.006;9.292;2023-02-08T15:04:20;10.55;;;5.00;;
50932;SDS011;36921;49.006;9.292;2023-02-08T15:09:28;10.68;;;4.45;;
50932;SDS011;36921;49.006;9.292;2023-02-08T15:12:02;11.77;;;4.55;;
50932;SDS011;36921;49.006;9.292;2023-02-08T15:14:30;11.55;;;4.78;;
50932;SDS011;36921;49.006;9.292;2023-02-08T15:16:59;9.68;;;4.28;;
50932;SDS011;36921;49.006;9.292;2023-02-08T15:19:27;10.38;;;4.97;;
50932;SDS011;36921;49.006;9.292;2023-02-08T15:22:14;9.52;;;4.40;;
50932;SDS011;36921;49.006;9.292;2023-02-08T15:24:48;8.93;;;4.25;;
50932;SDS011;36921;49.006;9.292;2023-02-08T15:27:27;8.80;;;4.53;;
50932;SDS011;36921;49.006;9.292;2023-02-08T15:29:55;8.82;;;4.35;;
50932;SDS011;36921;49.006;9.292;2023-02-08T15:32:21;10.15;;;4.72;;
50932;SDS011;36921;49.006;9.292;2023-02-08T15:35:01;12.25;;;4.78;;
50932;SDS011;36921;49.006;9.292;2023-02-08T15:37:29;11.65;;;4.90;;
50932;SDS011;36921;49.006;9.292;2023-02-08T15:39:58;10.60;;;4.95;;
50932;SDS011;36921;49.006;9.292;2023-02-08T15:42:25;14.30;;;5.28;;
50932;SDS011;36921;49.006;9.292;2023-02-08T15:44:53;11.90;;;5.00;;
50932;SDS011;36921;49.006;9.292;2023-02-08T15:47:24;10.85;;;5.30;;
50932;SDS011;36921;49.006;9.292;2023-02-08T15:49:53;10.65;;;5.10;;
50932;SDS011;36921;49.006;9.292;2023-02-08T15:52:20;8.98;;;4.93;;
50932;SDS011;36921;49.006;9.292;2023-02-08T15:54:48;12.13;;;5.78;;
50932;SDS011;36921;49.006;9.292;2023-02-08T15:57:33;9.85;;;4.55;;
50932;SDS011;36921;49.006;9.292;2023-02-08T16:00:12;11.80;;;4.95;;
50932;SDS011;36921;49.006;9.292;2023-02-08T16:02:40;10.25;;;5.28;;
50932;SDS011;36921;49.006;9.292;2023-02-08T16:05:10;10.70;;;5.35;;
50932;SDS011;36921;49.006;9.292;2023-02-08T16:07:44;10.40;;;4.65;;
50932;SDS011;36921;49.006;9.292;2023-02-08T16:10:24;12.63;;;5.35;;
50932;SDS011;36921;49.006;9.292;2023-02-08T16:13:03;12.38;;;5.47;;
50932;SDS011;36921;49.006;9.292;2023-02-08T16:17:59;12.68;;;5.70;;
50932;SDS011;36921;49.006;9.292;2023-02-08T16:20:26;11.75;;;5.28;;
50932;SDS011;36921;49.006;9.292;2023-02-08T16:23:01;17.25;;;5.90;;
50932;SDS011;36921;49.006;9.292;2023-02-08T16:25:45;15.68;;;7.00;;
50932;SDS011;36921;49.006;9.292;2023-02-08T16:28:21;19.52;;;7.20;;
50932;SDS011;36921;49.006;9.292;2023-02-08T16:30:48;18.50;;;6.80;;
50932;SDS011;36921;49.006;9.292;2023-02-08T16:33:13;20.33;;;8.13;;
50932;SDS011;36921;49.006;9.292;2023-02-08T16:35:39;21.20;;;7.15;;
50932;SDS011;36921;49.006;9.292;2023-02-08T16:38:06;13.52;;;5.70;;
50932;SDS011;36921;49.006;9.292;2023-02-08T16:40:53;13.18;;;5.38;;
50932;SDS011;36921;49.006;9.292;2023-02-08T16:43:29;12.45;;;6.07;;
50932;SDS011;36921;49.006;9.292;2023-02-08T16:48:50;13.68;;;6.03;;
50932;SDS011;36921;49.006;9.292;2023-02-08T16:51:18;13.13;;;5.70;;
50932;SDS011;36921;49.006;9.292;2023-02-08T16:53:49;14.43;;;6.47;;
50932;SDS011;36921;49.006;9.292;2023-02-08T16:56:17;19.35;;;6.95;;
50932;SDS011;36921;49.006;9.292;2023-02-08T16:58:43;15.60;;;6.55;;
50932;SDS011;36921;49.006;9.292;2023-02-08T17:01:10;18.90;;;7.40;;